sensor_id;sensor_type;location;lat;lon;timestamp;P1;durP1;ratioP1;P2;durP2;ratioP2
66585;SDS011;53444;45.822;16.092;2022-12-20T00:00:51;22.17;;;10.65;;
66585;SDS011;53444;45.822;16.092;2022-12-20T00:03:19;24.90;;;9.95;;
66585;SDS011;53444;45.822;16.092;2022-12-20T00:05:46;28.20;;;9.68;;
66585;SDS011;53444;45.822;16.092;2022-12-20T00:08:13;24.97;;;7.90;;
66585;SDS011;53444;45.822;16.092;2022-12-20T00:10:42;18.85;;;8.82;;
66585;SDS011;53444;45.822;16.092;2022-12-20T00:13:10;23.00;;;8.15;;
66585;SDS011;53444;45.822;16.092;2022-12-20T00:15:37;18.08;;;7.90;;
66585;SDS011;53444;45.822;16.092;2022-12-20T00:18:04;25.85;;;9.75;;
66585;SDS011;53444;45.822;16.092;2022-12-20T00:20:31;28.23;;;9.50;;
66585;SDS011;53444;45.822;16.092;2022-12-20T00:23:01;28.13;;;10.32;;
66585;SDS011;53444;45.822;16.092;2022-12-20T00:25:28;24.55;;;10.10;;
66585;SDS011;53444;45.822;16.092;2022-12-20T00:27:56;20.55;;;9.85;;
66585;SDS011;53444;45.822;16.092;2022-12-20T00:30:23;24.25;;;7.57;;
66585;SDS011;53444;45.822;16.092;2022-12-20T00:32:49;23.53;;;7.70;;
66585;SDS011;53444;45.822;16.092;2022-12-20T00:35:19;20.83;;;8.85;;
66585;SDS011;53444;45.822;16.092;2022-12-20T00:37:56;22.90;;;10.18;;
66585;SDS011;53444;45.822;16.092;2022-12-20T00:40:22;31.45;;;11.75;;
66585;SDS011;53444;45.822;16.092;2022-12-20T00:42:49;31.98;;;11.55;;
66585;SDS011;53444;45.822;16.092;2022-12-20T00:45:17;31.13;;;10.60;;
66585;SDS011;53444;45.822;16.092;2022-12-20T00:47:44;28.77;;;11.10;;
66585;SDS011;53444;45.822;16.092;2022-12-20T00:50:10;20.95;;;8.27;;
66585;SDS011;53444;45.822;16.092;2022-12-20T00:52:37;33.90;;;11.88;;
66585;SDS011;53444;45.822;16.092;2022-12-20T00:55:04;26.98;;;10.27;;
66585;SDS011;53444;45.822;16.092;2022-12-20T00:57:31;23.47;;;9.97;;
66585;SDS011;53444;45.822;16.092;2022-12-20T00:59:57;30.65;;;11.18;;
66585;SDS011;53444;45.822;16.092;2022-12-20T01:02:25;35.10;;;11.48;;
66585;SDS011;53444;45.822;16.092;2022-12-20T01:04:52;40.58;;;11.77;;
66585;SDS011;53444;45.822;16.092;2022-12-20T01:07:19;23.58;;;10.32;;
66585;SDS011;53444;45.822;16.092;2022-12-20T01:09:47;23.37;;;10.33;;
66585;SDS011;53444;45.822;16.092;2022-12-20T01:12:14;23.20;;;7.50;;
66585;SDS011;53444;45.822;16.092;2022-12-20T01:14:40;31.75;;;9.35;;
66585;SDS011;53444;45.822;16.092;2022-12-20T01:17:07;26.17;;;10.00;;
66585;SDS011;53444;45.822;16.092;2022-12-20T01:19:35;25.30;;;7.70;;
66585;SDS011;53444;45.822;16.092;2022-12-20T01:22:02;31.20;;;10.10;;
66585;SDS011;53444;45.822;16.092;2022-12-20T01:24:28;28.27;;;10.75;;
66585;SDS011;53444;45.822;16.092;2022-12-20T01:26:56;31.63;;;11.55;;
66585;SDS011;53444;45.822;16.092;2022-12-20T01:29:22;30.23;;;9.52;;
66585;SDS011;53444;45.822;16.092;2022-12-20T01:31:49;35.22;;;11.43;;
66585;SDS011;53444;45.822;16.092;2022-12-20T01:34:17;28.67;;;9.80;;
66585;SDS011;53444;45.822;16.092;2022-12-20T01:36:45;29.35;;;10.27;;
66585;SDS011;53444;45.822;16.092;2022-12-20T01:39:14;30.60;;;10.55;;
66585;SDS011;53444;45.822;16.092;2022-12-20T01:41:41;24.52;;;8.95;;
66585;SDS011;53444;45.822;16.092;2022-12-20T01:47:09;25.13;;;8.10;;
66585;SDS011;53444;45.822;16.092;2022-12-20T01:49:38;22.77;;;8.75;;
66585;SDS011;53444;45.822;16.092;2022-12-20T01:52:10;22.27;;;8.88;;
66585;SDS011;53444;45.822;16.092;2022-12-20T01:54:40;25.50;;;9.23;;
66585;SDS011;53444;45.822;16.092;2022-12-20T01:57:13;29.50;;;10.00;;
66585;SDS011;53444;45.822;16.092;2022-12-20T01:59:43;26.67;;;10.20;;
66585;SDS011;53444;45.822;16.092;2022-12-20T02:02:14;18.33;;;8.48;;
66585;SDS011;53444;45.822;16.092;2022-12-20T02:04:41;21.40;;;9.68;;
66585;SDS011;53444;45.822;16.092;2022-12-20T02:07:08;23.30;;;8.93;;
66585;SDS011;53444;45.822;16.092;2022-12-20T02:09:42;20.80;;;8.18;;
66585;SDS011;53444;45.822;16.092;2022-12-20T02:12:10;20.63;;;8.27;;
66585;SDS011;53444;45.822;16.092;2022-12-20T02:14:47;25.63;;;9.60;;
66585;SDS011;53444;45.822;16.092;2022-12-20T02:17:27;23.52;;;9.13;;
66585;SDS011;53444;45.822;16.092;2022-12-20T02:23:08;22.70;;;8.82;;
66585;SDS011;53444;45.822;16.092;2022-12-20T02:25:51;19.63;;;7.97;;
66585;SDS011;53444;45.822;16.092;2022-12-20T02:28:39;27.45;;;11.20;;
66585;SDS011;53444;45.822;16.092;2022-12-20T02:31:26;23.27;;;9.02;;
66585;SDS011;53444;45.822;16.092;2022-12-20T02:33:55;25.98;;;11.00;;
66585;SDS011;53444;45.822;16.092;2022-12-20T02:36:24;28.92;;;10.30;;
66585;SDS011;53444;45.822;16.092;2022-12-20T02:38:50;27.57;;;11.23;;
66585;SDS011;53444;45.822;16.092;2022-12-20T02:41:18;23.73;;;8.70;;
66585;SDS011;53444;45.822;16.092;2022-12-20T02:43:49;21.77;;;8.15;;
66585;SDS011;53444;45.822;16.092;2022-12-20T02:46:38;20.35;;;8.57;;
66585;SDS011;53444;45.822;16.092;2022-12-20T02:49:07;21.15;;;7.68;;
66585;SDS011;53444;45.822;16.092;2022-12-20T02:51:36;27.83;;;10.10;;
66585;SDS011;53444;45.822;16.092;2022-12-20T02:54:04;25.63;;;10.98;;
66585;SDS011;53444;45.822;16.092;2022-12-20T02:56:32;21.10;;;8.23;;
66585;SDS011;53444;45.822;16.092;2022-12-20T02:59:05;24.13;;;8.80;;
66585;SDS011;53444;45.822;16.092;2022-12-20T03:01:35;32.75;;;9.63;;
66585;SDS011;53444;45.822;16.092;2022-12-20T03:04:07;26.93;;;8.83;;
66585;SDS011;53444;45.822;16.092;2022-12-20T03:06:34;27.45;;;9.20;;
66585;SDS011;53444;45.822;16.092;2022-12-20T03:09:00;21.73;;;9.55;;
66585;SDS011;53444;45.822;16.092;2022-12-20T03:11:27;27.55;;;10.30;;
66585;SDS011;53444;45.822;16.092;2022-12-20T03:13:54;31.90;;;12.50;;
66585;SDS011;53444;45.822;16.092;2022-12-20T03:16:20;19.13;;;8.50;;
66585;SDS011;53444;45.822;16.092;2022-12-20T03:18:48;21.70;;;7.95;;
66585;SDS011;53444;45.822;16.092;2022-12-20T03:21:15;19.42;;;8.60;;
66585;SDS011;53444;45.822;16.092;2022-12-20T03:23:41;25.38;;;10.20;;
66585;SDS011;53444;45.822;16.092;2022-12-20T03:26:08;28.02;;;11.10;;
66585;SDS011;53444;45.822;16.092;2022-12-20T03:28:34;24.87;;;8.73;;
66585;SDS011;53444;45.822;16.092;2022-12-20T03:31:01;34.55;;;11.65;;
66585;SDS011;53444;45.822;16.092;2022-12-20T03:33:28;20.80;;;9.85;;
66585;SDS011;53444;45.822;16.092;2022-12-20T03:35:56;24.38;;;9.57;;
66585;SDS011;53444;45.822;16.092;2022-12-20T03:38:22;23.80;;;9.35;;
66585;SDS011;53444;45.822;16.092;2022-12-20T03:40:49;17.50;;;8.73;;
66585;SDS011;53444;45.822;16.092;2022-12-20T03:43:15;21.73;;;7.75;;
66585;SDS011;53444;45.822;16.092;2022-12-20T03:45:42;26.33;;;9.45;;
66585;SDS011;53444;45.822;16.092;2022-12-20T03:48:09;20.88;;;8.23;;
66585;SDS011;53444;45.822;16.092;2022-12-20T03:50:35;23.25;;;9.52;;
66585;SDS011;53444;45.822;16.092;2022-12-20T03:53:03;23.50;;;8.63;;
66585;SDS011;53444;45.822;16.092;2022-12-20T03:55:30;21.85;;;8.88;;
66585;SDS011;53444;45.822;16.092;2022-12-20T03:57:56;21.35;;;8.18;;
66585;SDS011;53444;45.822;16.092;2022-12-20T04:00:23;27.45;;;9.73;;
66585;SDS011;53444;45.822;16.092;2022-12-20T04:02:50;26.05;;;9.48;;
66585;SDS011;53444;45.822;16.092;2022-12-20T04:05:17;12.87;;;6.20;;
66585;SDS011;53444;45.822;16.092;2022-12-20T04:07:44;20.95;;;7.90;;
66585;SDS011;53444;45.822;16.092;2022-12-20T04:10:12;24.17;;;8.73;;
66585;SDS011;53444;45.822;16.092;2022-12-20T04:12:38;23.65;;;8.20;;
66585;SDS011;53444;45.822;16.092;2022-12-20T04:15:06;26.65;;;10.27;;
66585;SDS011;53444;45.822;16.092;2022-12-20T04:17:33;30.63;;;10.83;;
66585;SDS011;53444;45.822;16.092;2022-12-20T04:20:00;30.48;;;11.38;;
66585;SDS011;53444;45.822;16.092;2022-12-20T04:22:42;22.58;;;7.93;;
66585;SDS011;53444;45.822;16.092;2022-12-20T04:25:09;24.48;;;8.20;;
66585;SDS011;53444;45.822;16.092;2022-12-20T04:27:37;24.13;;;10.63;;
66585;SDS011;53444;45.822;16.092;2022-12-20T04:30:04;21.30;;;8.63;;
66585;SDS011;53444;45.822;16.092;2022-12-20T04:32:33;29.80;;;9.98;;
66585;SDS011;53444;45.822;16.092;2022-12-20T04:34:59;28.55;;;9.00;;
66585;SDS011;53444;45.822;16.092;2022-12-20T04:37:28;33.10;;;12.23;;
66585;SDS011;53444;45.822;16.092;2022-12-20T04:39:55;27.02;;;9.82;;
66585;SDS011;53444;45.822;16.092;2022-12-20T04:42:22;17.07;;;8.33;;
66585;SDS011;53444;45.822;16.092;2022-12-20T04:44:50;32.05;;;9.20;;
66585;SDS011;53444;45.822;16.092;2022-12-20T04:47:16;21.55;;;9.82;;
66585;SDS011;53444;45.822;16.092;2022-12-20T04:49:43;33.95;;;11.20;;
66585;SDS011;53444;45.822;16.092;2022-12-20T04:52:10;32.65;;;11.32;;
66585;SDS011;53444;45.822;16.092;2022-12-20T04:54:54;35.70;;;12.60;;
66585;SDS011;53444;45.822;16.092;2022-12-20T04:57:20;29.58;;;10.75;;
66585;SDS011;53444;45.822;16.092;2022-12-20T04:59:47;23.08;;;10.38;;
66585;SDS011;53444;45.822;16.092;2022-12-20T05:02:15;22.75;;;9.63;;
66585;SDS011;53444;45.822;16.092;2022-12-20T05:04:41;21.20;;;8.82;;
66585;SDS011;53444;45.822;16.092;2022-12-20T05:07:08;26.53;;;9.23;;
66585;SDS011;53444;45.822;16.092;2022-12-20T05:09:35;24.35;;;9.07;;
66585;SDS011;53444;45.822;16.092;2022-12-20T05:12:01;26.92;;;10.25;;
66585;SDS011;53444;45.822;16.092;2022-12-20T05:14:28;25.10;;;8.90;;
66585;SDS011;53444;45.822;16.092;2022-12-20T05:16:54;28.70;;;9.88;;
66585;SDS011;53444;45.822;16.092;2022-12-20T05:19:22;26.20;;;8.43;;
66585;SDS011;53444;45.822;16.092;2022-12-20T05:21:49;27.00;;;9.73;;
66585;SDS011;53444;45.822;16.092;2022-12-20T05:24:33;22.85;;;10.77;;
66585;SDS011;53444;45.822;16.092;2022-12-20T05:27:17;23.45;;;8.82;;
66585;SDS011;53444;45.822;16.092;2022-12-20T05:29:44;29.17;;;10.70;;
66585;SDS011;53444;45.822;16.092;2022-12-20T05:32:10;24.43;;;9.70;;
66585;SDS011;53444;45.822;16.092;2022-12-20T05:34:38;25.83;;;10.18;;
66585;SDS011;53444;45.822;16.092;2022-12-20T05:37:05;19.70;;;9.20;;
66585;SDS011;53444;45.822;16.092;2022-12-20T05:39:31;28.88;;;11.05;;
66585;SDS011;53444;45.822;16.092;2022-12-20T05:41:59;23.27;;;8.85;;
66585;SDS011;53444;45.822;16.092;2022-12-20T05:44:26;27.63;;;12.33;;
66585;SDS011;53444;45.822;16.092;2022-12-20T05:46:54;32.30;;;11.23;;
66585;SDS011;53444;45.822;16.092;2022-12-20T05:49:21;24.88;;;9.40;;
66585;SDS011;53444;45.822;16.092;2022-12-20T05:51:49;28.45;;;10.60;;
66585;SDS011;53444;45.822;16.092;2022-12-20T05:54:16;32.65;;;11.05;;
66585;SDS011;53444;45.822;16.092;2022-12-20T05:56:43;21.17;;;8.33;;
66585;SDS011;53444;45.822;16.092;2022-12-20T05:59:09;24.42;;;9.18;;
66585;SDS011;53444;45.822;16.092;2022-12-20T06:01:36;25.30;;;10.07;;
66585;SDS011;53444;45.822;16.092;2022-12-20T06:04:03;22.77;;;10.32;;
66585;SDS011;53444;45.822;16.092;2022-12-20T06:06:30;25.15;;;9.07;;
66585;SDS011;53444;45.822;16.092;2022-12-20T06:08:59;31.63;;;10.47;;
66585;SDS011;53444;45.822;16.092;2022-12-20T06:11:26;25.25;;;9.68;;
66585;SDS011;53444;45.822;16.092;2022-12-20T06:17:13;22.73;;;10.82;;
66585;SDS011;53444;45.822;16.092;2022-12-20T06:19:41;26.38;;;10.27;;
66585;SDS011;53444;45.822;16.092;2022-12-20T06:22:08;22.40;;;10.10;;
66585;SDS011;53444;45.822;16.092;2022-12-20T06:24:36;29.30;;;9.93;;
66585;SDS011;53444;45.822;16.092;2022-12-20T06:27:03;25.55;;;9.27;;
66585;SDS011;53444;45.822;16.092;2022-12-20T06:29:32;31.40;;;12.95;;
66585;SDS011;53444;45.822;16.092;2022-12-20T06:31:59;32.50;;;12.38;;
66585;SDS011;53444;45.822;16.092;2022-12-20T06:34:25;27.07;;;10.67;;
66585;SDS011;53444;45.822;16.092;2022-12-20T06:36:52;28.63;;;9.95;;
66585;SDS011;53444;45.822;16.092;2022-12-20T06:39:19;29.60;;;10.73;;
66585;SDS011;53444;45.822;16.092;2022-12-20T06:41:48;29.45;;;10.43;;
66585;SDS011;53444;45.822;16.092;2022-12-20T06:44:14;25.90;;;10.15;;
66585;SDS011;53444;45.822;16.092;2022-12-20T06:46:41;35.60;;;10.40;;
66585;SDS011;53444;45.822;16.092;2022-12-20T06:49:08;25.23;;;9.40;;
66585;SDS011;53444;45.822;16.092;2022-12-20T06:51:35;25.02;;;9.98;;
66585;SDS011;53444;45.822;16.092;2022-12-20T06:54:03;26.75;;;10.07;;
66585;SDS011;53444;45.822;16.092;2022-12-20T06:56:29;30.17;;;9.43;;
66585;SDS011;53444;45.822;16.092;2022-12-20T06:58:58;26.43;;;10.03;;
66585;SDS011;53444;45.822;16.092;2022-12-20T07:01:25;32.88;;;11.32;;
66585;SDS011;53444;45.822;16.092;2022-12-20T07:03:51;23.17;;;9.40;;
66585;SDS011;53444;45.822;16.092;2022-12-20T07:06:18;25.17;;;8.57;;
66585;SDS011;53444;45.822;16.092;2022-12-20T07:08:45;33.72;;;10.57;;
66585;SDS011;53444;45.822;16.092;2022-12-20T07:11:12;25.20;;;10.20;;
66585;SDS011;53444;45.822;16.092;2022-12-20T07:13:48;26.73;;;11.43;;
66585;SDS011;53444;45.822;16.092;2022-12-20T07:16:21;27.13;;;11.60;;
66585;SDS011;53444;45.822;16.092;2022-12-20T07:18:49;39.60;;;15.48;;
66585;SDS011;53444;45.822;16.092;2022-12-20T07:21:16;38.15;;;14.18;;
66585;SDS011;53444;45.822;16.092;2022-12-20T07:23:44;38.57;;;15.60;;
66585;SDS011;53444;45.822;16.092;2022-12-20T07:26:11;31.02;;;13.50;;
66585;SDS011;53444;45.822;16.092;2022-12-20T07:28:39;28.70;;;11.77;;
66585;SDS011;53444;45.822;16.092;2022-12-20T07:31:06;34.30;;;12.27;;
66585;SDS011;53444;45.822;16.092;2022-12-20T07:33:34;34.25;;;14.23;;
66585;SDS011;53444;45.822;16.092;2022-12-20T07:36:03;40.10;;;14.03;;
66585;SDS011;53444;45.822;16.092;2022-12-20T07:38:33;33.78;;;10.93;;
66585;SDS011;53444;45.822;16.092;2022-12-20T07:41:05;27.05;;;10.60;;
66585;SDS011;53444;45.822;16.092;2022-12-20T07:43:33;23.38;;;9.00;;
66585;SDS011;53444;45.822;16.092;2022-12-20T07:46:01;25.23;;;10.20;;
66585;SDS011;53444;45.822;16.092;2022-12-20T07:48:28;21.33;;;8.73;;
66585;SDS011;53444;45.822;16.092;2022-12-20T07:51:04;22.90;;;9.40;;
66585;SDS011;53444;45.822;16.092;2022-12-20T07:53:44;27.15;;;7.78;;
66585;SDS011;53444;45.822;16.092;2022-12-20T07:56:14;26.35;;;8.45;;
66585;SDS011;53444;45.822;16.092;2022-12-20T07:58:45;26.65;;;9.10;;
66585;SDS011;53444;45.822;16.092;2022-12-20T08:01:12;34.93;;;11.37;;
66585;SDS011;53444;45.822;16.092;2022-12-20T08:03:41;26.85;;;10.20;;
66585;SDS011;53444;45.822;16.092;2022-12-20T08:06:14;25.30;;;9.55;;
66585;SDS011;53444;45.822;16.092;2022-12-20T08:08:43;26.58;;;9.35;;
66585;SDS011;53444;45.822;16.092;2022-12-20T08:11:14;24.35;;;9.73;;
66585;SDS011;53444;45.822;16.092;2022-12-20T08:13:43;31.93;;;9.90;;
66585;SDS011;53444;45.822;16.092;2022-12-20T08:16:11;22.15;;;9.95;;
66585;SDS011;53444;45.822;16.092;2022-12-20T08:18:39;21.40;;;8.13;;
66585;SDS011;53444;45.822;16.092;2022-12-20T08:21:06;22.80;;;8.70;;
66585;SDS011;53444;45.822;16.092;2022-12-20T08:23:36;27.88;;;8.88;;
66585;SDS011;53444;45.822;16.092;2022-12-20T08:26:03;28.97;;;10.27;;
66585;SDS011;53444;45.822;16.092;2022-12-20T08:28:31;26.08;;;9.43;;
66585;SDS011;53444;45.822;16.092;2022-12-20T08:31:04;25.35;;;9.13;;
66585;SDS011;53444;45.822;16.092;2022-12-20T08:33:33;21.80;;;8.25;;
66585;SDS011;53444;45.822;16.092;2022-12-20T08:36:03;25.33;;;9.73;;
66585;SDS011;53444;45.822;16.092;2022-12-20T08:38:31;28.33;;;9.87;;
66585;SDS011;53444;45.822;16.092;2022-12-20T08:41:02;25.17;;;9.40;;
66585;SDS011;53444;45.822;16.092;2022-12-20T08:43:35;30.50;;;10.80;;
66585;SDS011;53444;45.822;16.092;2022-12-20T08:46:05;27.17;;;9.63;;
66585;SDS011;53444;45.822;16.092;2022-12-20T08:48:34;20.90;;;9.02;;
66585;SDS011;53444;45.822;16.092;2022-12-20T08:51:05;26.63;;;8.10;;
66585;SDS011;53444;45.822;16.092;2022-12-20T08:53:35;25.17;;;10.02;;
66585;SDS011;53444;45.822;16.092;2022-12-20T08:56:06;31.15;;;10.57;;
66585;SDS011;53444;45.822;16.092;2022-12-20T08:58:37;32.25;;;12.55;;
66585;SDS011;53444;45.822;16.092;2022-12-20T09:01:06;30.30;;;11.63;;
66585;SDS011;53444;45.822;16.092;2022-12-20T09:03:38;28.03;;;9.97;;
66585;SDS011;53444;45.822;16.092;2022-12-20T09:06:06;31.70;;;11.55;;
66585;SDS011;53444;45.822;16.092;2022-12-20T09:08:34;33.38;;;10.32;;
66585;SDS011;53444;45.822;16.092;2022-12-20T09:11:13;32.45;;;11.02;;
66585;SDS011;53444;45.822;16.092;2022-12-20T09:13:43;30.95;;;11.90;;
66585;SDS011;53444;45.822;16.092;2022-12-20T09:16:12;29.27;;;11.30;;
66585;SDS011;53444;45.822;16.092;2022-12-20T09:18:40;31.27;;;10.85;;
66585;SDS011;53444;45.822;16.092;2022-12-20T09:21:08;28.27;;;9.82;;
66585;SDS011;53444;45.822;16.092;2022-12-20T09:23:36;33.33;;;10.57;;
66585;SDS011;53444;45.822;16.092;2022-12-20T09:26:05;27.95;;;11.52;;
66585;SDS011;53444;45.822;16.092;2022-12-20T09:28:35;32.53;;;10.37;;
66585;SDS011;53444;45.822;16.092;2022-12-20T09:31:03;24.15;;;9.95;;
66585;SDS011;53444;45.822;16.092;2022-12-20T09:33:32;32.33;;;10.68;;
66585;SDS011;53444;45.822;16.092;2022-12-20T09:36:00;27.92;;;10.52;;
66585;SDS011;53444;45.822;16.092;2022-12-20T09:38:30;31.55;;;11.57;;
66585;SDS011;53444;45.822;16.092;2022-12-20T09:41:00;28.20;;;10.70;;
66585;SDS011;53444;45.822;16.092;2022-12-20T09:43:32;33.03;;;11.20;;
66585;SDS011;53444;45.822;16.092;2022-12-20T09:46:04;27.02;;;12.50;;
66585;SDS011;53444;45.822;16.092;2022-12-20T09:48:31;30.38;;;9.43;;
66585;SDS011;53444;45.822;16.092;2022-12-20T09:51:03;34.08;;;12.20;;
66585;SDS011;53444;45.822;16.092;2022-12-20T09:53:38;28.17;;;11.33;;
66585;SDS011;53444;45.822;16.092;2022-12-20T09:56:14;30.23;;;10.27;;
66585;SDS011;53444;45.822;16.092;2022-12-20T09:58:59;27.25;;;11.45;;
66585;SDS011;53444;45.822;16.092;2022-12-20T10:01:29;30.10;;;12.23;;
66585;SDS011;53444;45.822;16.092;2022-12-20T10:03:58;28.73;;;10.13;;
66585;SDS011;53444;45.822;16.092;2022-12-20T10:06:29;28.03;;;12.43;;
66585;SDS011;53444;45.822;16.092;2022-12-20T10:09:11;29.48;;;11.48;;
66585;SDS011;53444;45.822;16.092;2022-12-20T10:11:57;35.28;;;10.40;;
66585;SDS011;53444;45.822;16.092;2022-12-20T10:14:38;31.25;;;11.40;;
66585;SDS011;53444;45.822;16.092;2022-12-20T10:17:16;30.23;;;10.93;;
66585;SDS011;53444;45.822;16.092;2022-12-20T10:23:00;28.83;;;11.07;;
66585;SDS011;53444;45.822;16.092;2022-12-20T10:25:30;31.88;;;11.13;;
66585;SDS011;53444;45.822;16.092;2022-12-20T10:27:59;33.10;;;11.18;;
66585;SDS011;53444;45.822;16.092;2022-12-20T10:30:30;27.50;;;10.73;;
66585;SDS011;53444;45.822;16.092;2022-12-20T10:32:59;28.00;;;10.73;;
66585;SDS011;53444;45.822;16.092;2022-12-20T10:35:28;27.85;;;10.98;;
66585;SDS011;53444;45.822;16.092;2022-12-20T10:38:00;37.72;;;12.60;;
66585;SDS011;53444;45.822;16.092;2022-12-20T10:40:37;30.40;;;12.10;;
66585;SDS011;53444;45.822;16.092;2022-12-20T10:43:12;33.53;;;12.30;;
66585;SDS011;53444;45.822;16.092;2022-12-20T10:45:55;31.97;;;11.30;;
66585;SDS011;53444;45.822;16.092;2022-12-20T10:48:25;32.35;;;11.73;;
66585;SDS011;53444;45.822;16.092;2022-12-20T10:50:56;33.10;;;11.32;;
66585;SDS011;53444;45.822;16.092;2022-12-20T10:53:25;34.45;;;11.65;;
66585;SDS011;53444;45.822;16.092;2022-12-20T10:56:08;34.45;;;13.38;;
66585;SDS011;53444;45.822;16.092;2022-12-20T10:58:50;31.07;;;11.50;;
66585;SDS011;53444;45.822;16.092;2022-12-20T11:01:20;31.38;;;12.15;;
66585;SDS011;53444;45.822;16.092;2022-12-20T11:03:57;26.05;;;10.52;;
66585;SDS011;53444;45.822;16.092;2022-12-20T11:06:47;27.10;;;9.38;;
66585;SDS011;53444;45.822;16.092;2022-12-20T11:09:25;33.97;;;11.13;;
66585;SDS011;53444;45.822;16.092;2022-12-20T11:12:01;26.70;;;10.07;;
66585;SDS011;53444;45.822;16.092;2022-12-20T11:14:35;21.25;;;8.60;;
66585;SDS011;53444;45.822;16.092;2022-12-20T11:17:05;25.45;;;9.68;;
66585;SDS011;53444;45.822;16.092;2022-12-20T11:19:49;31.98;;;10.20;;
66585;SDS011;53444;45.822;16.092;2022-12-20T11:22:30;25.73;;;9.15;;
66585;SDS011;53444;45.822;16.092;2022-12-20T11:25:18;24.57;;;8.67;;
66585;SDS011;53444;45.822;16.092;2022-12-20T11:27:55;21.13;;;8.07;;
66585;SDS011;53444;45.822;16.092;2022-12-20T11:30:34;26.95;;;9.45;;
66585;SDS011;53444;45.822;16.092;2022-12-20T11:33:35;31.60;;;11.98;;
66585;SDS011;53444;45.822;16.092;2022-12-20T11:36:16;28.40;;;9.57;;
66585;SDS011;53444;45.822;16.092;2022-12-20T11:38:51;24.13;;;9.40;;
66585;SDS011;53444;45.822;16.092;2022-12-20T11:41:27;31.38;;;12.18;;
66585;SDS011;53444;45.822;16.092;2022-12-20T11:44:03;40.38;;;15.13;;
66585;SDS011;53444;45.822;16.092;2022-12-20T11:46:45;39.50;;;14.45;;
66585;SDS011;53444;45.822;16.092;2022-12-20T11:49:30;40.67;;;14.73;;
66585;SDS011;53444;45.822;16.092;2022-12-20T11:52:09;27.67;;;10.20;;
66585;SDS011;53444;45.822;16.092;2022-12-20T11:54:47;28.85;;;9.65;;
66585;SDS011;53444;45.822;16.092;2022-12-20T11:57:22;30.13;;;11.32;;
66585;SDS011;53444;45.822;16.092;2022-12-20T11:59:55;27.90;;;9.90;;
66585;SDS011;53444;45.822;16.092;2022-12-20T12:02:25;34.40;;;12.57;;
66585;SDS011;53444;45.822;16.092;2022-12-20T12:04:58;34.80;;;12.43;;
66585;SDS011;53444;45.822;16.092;2022-12-20T12:07:29;39.47;;;14.68;;
66585;SDS011;53444;45.822;16.092;2022-12-20T12:09:58;30.15;;;10.13;;
66585;SDS011;53444;45.822;16.092;2022-12-20T12:12:28;28.50;;;11.25;;
66585;SDS011;53444;45.822;16.092;2022-12-20T12:15:00;32.72;;;13.43;;
66585;SDS011;53444;45.822;16.092;2022-12-20T12:17:37;26.63;;;9.70;;
66585;SDS011;53444;45.822;16.092;2022-12-20T12:20:21;25.90;;;10.70;;
66585;SDS011;53444;45.822;16.092;2022-12-20T12:22:52;29.58;;;8.52;;
66585;SDS011;53444;45.822;16.092;2022-12-20T12:25:26;26.50;;;9.68;;
66585;SDS011;53444;45.822;16.092;2022-12-20T12:27:56;24.38;;;8.98;;
66585;SDS011;53444;45.822;16.092;2022-12-20T12:30:24;26.70;;;10.13;;
66585;SDS011;53444;45.822;16.092;2022-12-20T12:32:54;32.50;;;9.70;;
66585;SDS011;53444;45.822;16.092;2022-12-20T12:35:44;22.60;;;8.88;;
66585;SDS011;53444;45.822;16.092;2022-12-20T12:38:35;26.38;;;11.27;;
66585;SDS011;53444;45.822;16.092;2022-12-20T12:41:33;41.33;;;12.93;;
66585;SDS011;53444;45.822;16.092;2022-12-20T12:44:34;31.80;;;12.50;;
66585;SDS011;53444;45.822;16.092;2022-12-20T12:47:05;37.08;;;13.30;;
66585;SDS011;53444;45.822;16.092;2022-12-20T12:49:39;32.03;;;12.32;;
66585;SDS011;53444;45.822;16.092;2022-12-20T12:52:21;38.65;;;16.17;;
66585;SDS011;53444;45.822;16.092;2022-12-20T12:54:54;47.60;;;17.02;;
66585;SDS011;53444;45.822;16.092;2022-12-20T12:57:21;51.60;;;17.53;;
66585;SDS011;53444;45.822;16.092;2022-12-20T12:59:48;34.63;;;12.15;;
66585;SDS011;53444;45.822;16.092;2022-12-20T13:02:24;36.60;;;11.40;;
66585;SDS011;53444;45.822;16.092;2022-12-20T13:04:58;32.30;;;11.40;;
66585;SDS011;53444;45.822;16.092;2022-12-20T13:07:29;25.08;;;10.52;;
66585;SDS011;53444;45.822;16.092;2022-12-20T13:13:13;34.95;;;13.35;;
66585;SDS011;53444;45.822;16.092;2022-12-20T13:15:51;36.90;;;12.30;;
66585;SDS011;53444;45.822;16.092;2022-12-20T13:18:29;34.97;;;13.32;;
66585;SDS011;53444;45.822;16.092;2022-12-20T13:27:29;37.28;;;12.80;;
66585;SDS011;53444;45.822;16.092;2022-12-20T13:32:55;49.67;;;15.30;;
66585;SDS011;53444;45.822;16.092;2022-12-20T13:35:27;47.08;;;13.90;;
66585;SDS011;53444;45.822;16.092;2022-12-20T13:37:56;32.77;;;10.33;;
66585;SDS011;53444;45.822;16.092;2022-12-20T13:40:30;38.08;;;11.45;;
66585;SDS011;53444;45.822;16.092;2022-12-20T13:43:01;32.03;;;11.40;;
66585;SDS011;53444;45.822;16.092;2022-12-20T13:45:33;31.63;;;11.80;;
66585;SDS011;53444;45.822;16.092;2022-12-20T13:48:01;37.70;;;12.38;;
66585;SDS011;53444;45.822;16.092;2022-12-20T13:50:31;34.57;;;12.00;;
66585;SDS011;53444;45.822;16.092;2022-12-20T13:53:04;27.15;;;11.85;;
66585;SDS011;53444;45.822;16.092;2022-12-20T13:55:38;34.15;;;12.90;;
66585;SDS011;53444;45.822;16.092;2022-12-20T13:58:11;40.00;;;13.45;;
66585;SDS011;53444;45.822;16.092;2022-12-20T14:00:45;33.28;;;13.05;;
66585;SDS011;53444;45.822;16.092;2022-12-20T14:03:22;36.33;;;11.37;;
66585;SDS011;53444;45.822;16.092;2022-12-20T14:05:55;34.63;;;11.15;;
66585;SDS011;53444;45.822;16.092;2022-12-20T14:08:25;37.72;;;13.23;;
66585;SDS011;53444;45.822;16.092;2022-12-20T14:10:56;32.08;;;12.70;;
66585;SDS011;53444;45.822;16.092;2022-12-20T14:13:32;38.30;;;14.27;;
66585;SDS011;53444;45.822;16.092;2022-12-20T14:16:05;32.80;;;12.60;;
66585;SDS011;53444;45.822;16.092;2022-12-20T14:18:33;40.95;;;12.73;;
66585;SDS011;53444;45.822;16.092;2022-12-20T14:21:00;37.70;;;12.18;;
66585;SDS011;53444;45.822;16.092;2022-12-20T14:23:31;39.38;;;12.27;;
66585;SDS011;53444;45.822;16.092;2022-12-20T14:26:04;40.85;;;13.30;;
66585;SDS011;53444;45.822;16.092;2022-12-20T14:28:38;39.10;;;13.93;;
66585;SDS011;53444;45.822;16.092;2022-12-20T14:31:06;42.50;;;14.02;;
66585;SDS011;53444;45.822;16.092;2022-12-20T14:33:59;35.35;;;12.05;;
66585;SDS011;53444;45.822;16.092;2022-12-20T14:36:27;43.58;;;13.57;;
66585;SDS011;53444;45.822;16.092;2022-12-20T14:39:00;42.83;;;14.02;;
66585;SDS011;53444;45.822;16.092;2022-12-20T14:41:33;49.40;;;15.53;;
66585;SDS011;53444;45.822;16.092;2022-12-20T14:44:11;44.75;;;12.77;;
66585;SDS011;53444;45.822;16.092;2022-12-20T14:46:45;43.17;;;14.45;;
66585;SDS011;53444;45.822;16.092;2022-12-20T14:49:20;37.03;;;14.52;;
66585;SDS011;53444;45.822;16.092;2022-12-20T14:52:02;41.83;;;14.43;;
66585;SDS011;53444;45.822;16.092;2022-12-20T14:54:31;40.63;;;13.87;;
66585;SDS011;53444;45.822;16.092;2022-12-20T14:57:19;49.20;;;13.57;;
66585;SDS011;53444;45.822;16.092;2022-12-20T15:00:01;41.75;;;14.23;;